Time;durP1;ratioP1;P1;durP2;ratioP2;P2;SDS_P1;SDS_P2;PMS_P1;PMS_P2;Temp;Humidity;BMP_temperature;BMP_pressure;BME280_temperature;BME280_humidity;BME280_pressure;Samples;Min_cycle;Max_cycle;Signal;HPM_P1;HPM_P2
2021/10/08 00:03:55;;;;;;;16.83;5.43;;;9.20;99.90;;;;;;6739786;88;20199;-78
2021/10/08 00:13:56;;;;;;;15.07;5.80;;;9.10;99.90;;;;;;6739802;88;20212;-79
2021/10/08 00:23:57;;;;;;;14.35;6.37;;;9.10;99.90;;;;;;6739402;88;20189;-77
2021/10/08 00:33:57;;;;;;;13.75;6.20;;;9.10;99.90;;;;;;6736340;88;20239;-78
2021/10/08 00:43:58;;;;;;;13.62;6.03;;;8.90;99.90;;;;;;6740435;88;20179;-78
2021/10/08 00:53:59;;;;;;;13.35;5.87;;;8.70;99.90;;;;;;6740040;88;20765;-78
2021/10/08 01:03:59;;;;;;;12.57;5.93;;;8.70;99.90;;;;;;6740849;88;20205;-78
2021/10/08 01:14:03;;;;;;;11.90;5.22;;;8.70;99.90;;;;;;6740108;88;20623;-77
2021/10/08 01:24:03;;;;;;;12.75;5.78;;;8.40;99.90;;;;;;6739628;88;20176;-78
2021/10/08 01:34:04;;;;;;;28.30;6.07;;;8.20;99.90;;;;;;6741983;88;20720;-78
2021/10/08 01:44:05;;;;;;;13.15;6.30;;;8.20;99.90;;;;;;6742608;88;20214;-77
2021/10/08 01:54:06;;;;;;;15.20;5.90;;;8.00;99.90;;;;;;6742170;88;20346;-79
2021/10/08 02:04:07;;;;;;;17.33;5.80;;;8.00;99.90;;;;;;6741036;88;20600;-78
2021/10/08 02:14:07;;;;;;;15.10;5.62;;;7.90;99.90;;;;;;6742246;88;20197;-78
2021/10/08 02:24:08;;;;;;;15.67;5.43;;;7.90;99.90;;;;;;6742234;88;20185;-78
2021/10/08 02:34:08;;;;;;;15.80;5.85;;;7.80;99.90;;;;;;6742250;88;20611;-79
2021/10/08 02:44:09;;;;;;;16.58;6.25;;;7.90;99.90;;;;;;6745979;88;20206;-78
2021/10/08 02:54:09;;;;;;;17.30;5.87;;;7.90;99.90;;;;;;6741799;88;21331;-78
2021/10/08 03:04:10;;;;;;;46.47;5.32;;;7.80;99.90;;;;;;6742672;88;20294;-77
2021/10/08 03:14:10;;;;;;;25.85;5.80;;;7.80;99.90;;;;;;6743367;88;20192;-78
2021/10/08 03:24:11;;;;;;;42.95;6.25;;;7.80;99.90;;;;;;6748044;88;20211;-77
2021/10/08 03:34:12;;;;;;;23.92;6.68;;;7.70;99.90;;;;;;6742756;88;20204;-78
2021/10/08 03:44:13;;;;;;;20.77;6.32;;;7.70;99.90;;;;;;6747036;88;20224;-78
2021/10/08 03:54:16;;;;;;;15.85;6.50;;;7.50;99.90;;;;;;6745120;88;20193;-78
2021/10/08 04:04:16;;;;;;;17.02;5.43;;;7.60;99.90;;;;;;6740263;88;20216;-78
2021/10/08 04:14:18;;;;;;;32.20;5.22;;;7.50;99.90;;;;;;6739057;88;20609;-78
2021/10/08 04:24:18;;;;;;;80.00;6.80;;;7.50;99.90;;;;;;6739631;88;20298;-78
2021/10/08 04:34:19;;;;;;;29.30;10.23;;;7.60;99.90;;;;;;6740155;88;20180;-78
2021/10/08 04:44:19;;;;;;;16.20;7.30;;;7.70;99.90;;;;;;6735925;88;20250;-78
2021/10/08 04:54:20;;;;;;;43.38;7.12;;;7.60;99.90;;;;;;6736227;88;20703;-78
2021/10/08 05:04:20;;;;;;;38.72;6.80;;;7.60;99.90;;;;;;6740255;88;20236;-78
2021/10/08 05:14:21;;;;;;;70.57;7.25;;;7.80;99.90;;;;;;6747448;88;20216;-79
2021/10/08 05:24:22;;;;;;;35.78;7.30;;;7.80;99.90;;;;;;6748740;88;20302;-78
2021/10/08 05:34:23;;;;;;;28.48;6.32;;;7.80;99.90;;;;;;6744634;88;20226;-78
2021/10/08 05:44:23;;;;;;;73.75;6.78;;;7.90;99.90;;;;;;6750479;88;20209;-79
2021/10/08 05:54:24;;;;;;;48.55;5.25;;;7.80;99.90;;;;;;6748486;88;20214;-78
2021/10/08 06:04:24;;;;;;;82.88;7.70;;;7.70;99.90;;;;;;6748284;88;20668;-79
2021/10/08 06:14:25;;;;;;;50.97;7.55;;;7.60;99.90;;;;;;6748409;88;20187;-78
2021/10/08 06:24:25;;;;;;;48.00;6.95;;;7.60;99.90;;;;;;6748238;88;20184;-78
2021/10/08 06:34:26;;;;;;;13.93;6.30;;;7.70;99.90;;;;;;6747795;88;20215;-79
2021/10/08 06:44:27;;;;;;;35.28;6.30;;;7.60;99.90;;;;;;6748667;88;20189;-79
2021/10/08 06:54:27;;;;;;;15.85;7.00;;;7.30;99.90;;;;;;6749179;88;20212;-79
2021/10/08 07:04:28;;;;;;;16.83;6.43;;;7.40;99.90;;;;;;6756513;88;20257;-78
2021/10/08 07:14:28;;;;;;;12.57;6.03;;;7.70;99.90;;;;;;6748001;88;20284;-78
2021/10/08 07:24:30;;;;;;;34.60;5.75;;;7.90;99.90;;;;;;6746522;88;20311;-78
2021/10/08 07:34:31;;;;;;;39.13;7.07;;;8.00;99.90;;;;;;6747838;88;20181;-79
2021/10/08 07:44:31;;;;;;;15.40;7.10;;;8.00;99.90;;;;;;6746906;88;20217;-78
2021/10/08 07:54:32;;;;;;;14.68;7.47;;;8.30;99.90;;;;;;6744353;88;20197;-78
2021/10/08 08:04:32;;;;;;;21.50;9.07;;;8.90;99.90;;;;;;6744491;88;20217;-78
2021/10/08 08:14:33;;;;;;;22.10;10.52;;;9.20;99.90;;;;;;6745079;88;20188;-78
2021/10/08 08:24:35;;;;;;;21.70;11.12;;;9.20;99.90;;;;;;6744140;88;20192;-78
2021/10/08 08:34:35;;;;;;;17.75;10.00;;;9.80;99.90;;;;;;6745370;88;20208;-79
2021/10/08 08:44:36;;;;;;;23.70;12.20;;;10.20;99.90;;;;;;6752092;88;20245;-78
2021/10/08 08:54:37;;;;;;;13.48;8.60;;;10.60;99.90;;;;;;6749231;88;20227;-80
2021/10/08 09:04:38;;;;;;;14.00;7.30;;;11.90;99.90;;;;;;6746068;88;20213;-78
2021/10/08 09:14:39;;;;;;;11.80;6.57;;;13.70;99.90;;;;;;6739336;88;20696;-78
2021/10/08 09:24:39;;;;;;;11.80;7.10;;;14.60;99.90;;;;;;6742545;88;20196;-78
2021/10/08 09:34:40;;;;;;;9.25;5.90;;;16.20;99.90;;;;;;6742831;88;20267;-78
2021/10/08 09:44:46;;;;;;;10.88;5.80;;;17.50;99.90;;;;;;6741945;88;20388;-78
2021/10/08 09:54:52;;;;;;;8.85;4.57;;;18.70;99.90;;;;;;6744205;88;20209;-78
2021/10/08 10:04:55;;;;;;;7.65;4.65;;;19.90;99.90;;;;;;6743587;88;20785;-78
2021/10/08 10:14:55;;;;;;;6.32;3.83;;;20.50;99.90;;;;;;6743665;88;20258;-78
2021/10/08 10:24:56;;;;;;;7.13;4.00;;;21.10;99.90;;;;;;6741567;88;21066;-78
2021/10/08 10:34:57;;;;;;;11.07;5.07;;;22.10;99.90;;;;;;6741813;88;20267;-80
2021/10/08 10:45:20;;;;;;;8.02;4.60;;;22.70;99.90;;;;;;6744313;88;20521;-78
2021/10/08 10:55:22;;;;;;;7.72;4.43;;;23.00;99.90;;;;;;6744473;88;20217;-78
2021/10/08 11:05:25;;;;;;;6.93;4.00;;;24.10;98.70;;;;;;6742954;88;20283;-78
2021/10/08 11:15:25;;;;;;;7.70;3.97;;;23.30;99.30;;;;;;6742951;88;20224;-79
2021/10/08 11:25:31;;;;;;;4.60;3.05;;;24.50;97.00;;;;;;6742101;88;20498;-79
2021/10/08 11:35:34;;;;;;;4.62;2.95;;;24.90;96.40;;;;;;6741667;88;20217;-79
2021/10/08 11:45:51;;;;;;;3.30;2.60;;;25.30;95.20;;;;;;6745511;88;20187;-79
2021/10/08 11:55:51;;;;;;;4.18;2.40;;;24.90;94.10;;;;;;6743334;88;20360;-79
2021/10/08 12:05:58;;;;;;;4.72;2.28;;;25.50;94.50;;;;;;6742892;88;20242;-79
2021/10/08 12:15:59;;;;;;;5.37;2.20;;;25.70;93.50;;;;;;6748435;88;20191;-80
2021/10/08 12:26:00;;;;;;;4.87;2.40;;;26.90;92.20;;;;;;6742746;88;20221;-80
2021/10/08 12:36:24;;;;;;;4.57;2.30;;;26.80;91.00;;;;;;6741511;88;21116;-79
2021/10/08 12:46:30;;;;;;;3.92;2.25;;;24.20;94.00;;;;;;6746782;88;20228;-79
2021/10/08 12:56:31;;;;;;;6.80;2.60;;;23.10;93.90;;;;;;6746300;88;20636;-79
2021/10/08 13:06:32;;;;;;;4.40;2.30;;;22.70;96.00;;;;;;6742417;88;20262;-79
2021/10/08 13:16:36;;;;;;;3.87;2.40;;;22.70;96.80;;;;;;6743554;88;20188;-81
2021/10/08 13:26:36;;;;;;;4.78;2.20;;;21.70;98.60;;;;;;6743763;88;20261;-78
2021/10/08 13:36:37;;;;;;;4.07;1.90;;;22.30;97.30;;;;;;6753282;88;20206;-81
2021/10/08 13:46:38;;;;;;;3.35;2.05;;;23.50;96.70;;;;;;6749474;88;20368;-82
2021/10/08 13:56:44;;;;;;;2.65;2.10;;;24.20;94.60;;;;;;6750716;88;20588;-78
2021/10/08 14:17:04;;;;;;;3.75;2.00;;;23.30;95.30;;;;;;6746086;88;20209;-81
2021/10/08 14:27:05;;;;;;;3.08;2.30;;;22.10;94.80;;;;;;6742773;88;20749;-81
2021/10/08 14:37:05;;;;;;;2.83;2.42;;;20.60;99.10;;;;;;6747290;88;20180;-79
2021/10/08 14:47:06;;;;;;;4.18;1.95;;;22.10;98.00;;;;;;6748426;88;20211;-79
2021/10/08 15:07:26;;;;;;;4.62;2.20;;;21.80;96.40;;;;;;6747228;88;20198;-78
2021/10/08 15:17:27;;;;;;;2.58;1.92;;;21.50;96.70;;;;;;6748007;88;20222;-79
2021/10/08 15:27:27;;;;;;;4.82;2.30;;;21.80;98.00;;;;;;6750630;88;20212;-79
2021/10/08 15:37:28;;;;;;;3.97;2.25;;;21.70;97.40;;;;;;6743658;88;20217;-79
2021/10/08 15:47:28;;;;;;;4.60;2.30;;;20.90;98.50;;;;;;6745948;88;20238;-80
2021/10/08 15:57:29;;;;;;;5.75;2.53;;;20.90;99.00;;;;;;6746707;88;20213;-80
2021/10/08 16:07:29;;;;;;;4.28;2.70;;;20.70;99.90;;;;;;6760555;88;20196;-79
2021/10/08 16:17:31;;;;;;;4.00;2.33;;;20.30;99.90;;;;;;6757104;88;20251;-79
2021/10/08 16:27:32;;;;;;;3.87;2.60;;;19.80;99.90;;;;;;6759660;88;20192;-79
2021/10/08 16:37:33;;;;;;;4.57;3.03;;;19.20;99.90;;;;;;6750244;88;20214;-79
2021/10/08 16:47:34;;;;;;;4.47;3.00;;;18.60;99.90;;;;;;6738144;88;20218;-79
2021/10/08 16:57:35;;;;;;;5.50;3.30;;;18.10;99.90;;;;;;6738039;88;20175;-80
2021/10/08 17:07:36;;;;;;;6.43;4.50;;;17.50;99.90;;;;;;6744443;88;20303;-79
2021/10/08 17:17:36;;;;;;;6.05;4.50;;;16.90;99.90;;;;;;6743440;88;20289;-79
2021/10/08 17:27:45;;;;;;;7.43;5.15;;;16.50;99.90;;;;;;6743363;88;20219;-79
2021/10/08 17:37:46;;;;;;;20.65;12.35;;;16.00;99.90;;;;;;6743440;88;20186;-78
2021/10/08 17:47:51;;;;;;;11.12;6.43;;;15.50;99.90;;;;;;6744765;88;20226;-79
2021/10/08 17:57:52;;;;;;;12.57;8.73;;;15.20;99.90;;;;;;6747615;88;20437;-79
2021/10/08 18:07:52;;;;;;;13.75;8.00;;;15.20;99.90;;;;;;6743418;88;20200;-79
2021/10/08 18:17:53;;;;;;;8.65;6.15;;;14.70;99.90;;;;;;6742360;88;20206;-80
2021/10/08 18:27:53;;;;;;;9.27;6.82;;;14.60;99.90;;;;;;6741823;88;20198;-79
2021/10/08 18:37:54;;;;;;;8.75;6.43;;;14.30;99.90;;;;;;6747760;88;20388;-78
2021/10/08 18:47:56;;;;;;;11.98;7.95;;;13.70;99.90;;;;;;6743907;88;20210;-79
2021/10/08 18:57:56;;;;;;;12.25;7.65;;;13.60;99.90;;;;;;6743565;88;20185;-79
2021/10/08 19:07:57;;;;;;;11.02;7.53;;;13.60;99.90;;;;;;6743507;88;20750;-79
2021/10/08 19:18:23;;;;;;;11.18;7.60;;;13.40;99.90;;;;;;6738997;88;20668;-79
2021/10/08 19:28:24;;;;;;;13.70;9.17;;;13.00;99.90;;;;;;6743195;88;20179;-78
2021/10/08 19:38:25;;;;;;;11.52;8.35;;;12.90;99.90;;;;;;6740293;88;20718;-79
2021/10/08 19:48:25;;;;;;;12.88;8.00;;;12.60;99.90;;;;;;6743183;88;20214;-79
2021/10/08 19:58:26;;;;;;;14.68;9.57;;;12.50;99.90;;;;;;6743817;88;20211;-78
2021/10/08 20:18:47;;;;;;;16.55;10.23;;;12.70;99.90;;;;;;6743737;88;20355;-79
2021/10/08 20:28:48;;;;;;;13.95;9.40;;;12.30;99.90;;;;;;6738380;88;20651;-79
2021/10/08 20:38:48;;;;;;;15.25;9.90;;;12.10;99.90;;;;;;6736893;88;20225;-78
2021/10/08 20:48:50;;;;;;;15.80;9.13;;;11.80;99.90;;;;;;6742343;88;20196;-80
2021/10/08 20:58:50;;;;;;;16.87;9.93;;;11.90;99.90;;;;;;6746196;88;20192;-79
2021/10/08 21:08:51;;;;;;;15.35;9.93;;;11.70;99.90;;;;;;6758507;88;20846;-78
2021/10/08 21:18:52;;;;;;;22.92;13.82;;;11.50;99.90;;;;;;6757550;88;20391;-78
2021/10/08 21:28:53;;;;;;;22.35;13.15;;;11.40;99.90;;;;;;6755417;88;20333;-79
2021/10/08 21:38:59;;;;;;;21.92;13.38;;;11.30;99.90;;;;;;6751209;88;20249;-78
2021/10/08 21:48:59;;;;;;;17.17;10.50;;;11.10;99.90;;;;;;6755315;88;20189;-77
2021/10/08 21:59:00;;;;;;;19.53;12.57;;;11.10;99.90;;;;;;6697955;76;20251;-74
2021/10/08 22:09:04;;;;;;;18.30;11.88;;;10.90;99.90;;;;;;6680072;88;20713;-76
2021/10/08 22:39:06;;;;;;;19.55;11.05;;;10.80;99.90;;;;;;6732189;88;20334;-75
2021/10/08 22:49:06;;;;;;;19.60;12.18;;;10.80;99.90;;;;;;6731706;88;20681;-75
2021/10/08 22:59:07;;;;;;;19.05;12.40;;;10.70;99.90;;;;;;6731612;88;20243;-75
2021/10/08 23:09:14;;;;;;;21.70;11.82;;;10.80;99.90;;;;;;6731753;88;20306;-75
2021/10/08 23:19:15;;;;;;;25.70;14.25;;;10.60;99.90;;;;;;6731884;88;20200;-77
2021/10/08 23:29:17;;;;;;;29.00;15.55;;;10.60;99.90;;;;;;6727818;88;21050;-75
2021/10/08 23:39:18;;;;;;;30.42;15.90;;;10.50;99.90;;;;;;6731862;88;20192;-76
2021/10/08 23:49:18;;;;;;;29.50;16.33;;;10.60;99.90;;;;;;6732062;88;20334;-74
2021/10/08 23:59:19;;;;;;;30.77;16.20;;;10.60;99.90;;;;;;6730880;88;20203;-75
